Pembroke, Maine
Current Conditions -  °F | °C
As of 7:41 PM on Saturday 25 Oct 2014 (Local Time) from CYSJ Reporting Station
Overcast Overcast  
Wind Chill: 39°   Ceiling: 600
Heat Index: 43°   Visibility: 15mi
Dew Point: 43°   Wind: 7mph
Humidity: 100%   Direction: 360°N
Pressure: 29.57"   Gusts: NA
Location:  44.95°N, 67.16°W
Report Text: CYSJ 252341Z 36006KT 15SM BKN006 OVC022 06/06 A2957 RMK SF6SC2 SLP017
Loading
Personal Weather Stations






























Interactive Weather Map
Tropical Storm Tracking
New forecast layout! Learn more

10-Day Weather Forecast

Advertisements
Track Severe Weather on mobile